Time;durP1;ratioP1;P1;durP2;ratioP2;P2;SDS_P1;SDS_P2;PMS_P1;PMS_P2;Temp;Humidity;BMP_temperature;BMP_pressure;BME280_temperature;BME280_humidity;BME280_pressure;Samples;Min_cycle;Max_cycle;Signal;HPM_P1;HPM_P2
2021/06/15 00:02:10;;;;;;;4.37;3.40;;;22.40;51.90;;;;;;5014151;28;20697;-55
2021/06/15 00:04:38;;;;;;;6.60;4.50;;;22.40;51.90;;;;;;5014185;28;20698;-55
2021/06/15 00:07:06;;;;;;;4.67;4.27;;;22.40;52.10;;;;;;5012092;28;20667;-55
2021/06/15 00:09:33;;;;;;;4.80;3.63;;;22.40;52.30;;;;;;5013868;28;20670;-54
2021/06/15 00:12:01;;;;;;;4.20;3.90;;;22.40;52.40;;;;;;5014095;28;21110;-55
2021/06/15 00:14:28;;;;;;;6.63;3.93;;;22.40;52.50;;;;;;5014179;28;20651;-55
2021/06/15 00:16:55;;;;;;;5.10;4.27;;;22.40;52.70;;;;;;5013319;28;20692;-56
2021/06/15 00:19:22;;;;;;;4.37;4.03;;;22.30;52.80;;;;;;5000579;28;20660;-56
2021/06/15 00:21:51;;;;;;;5.43;4.93;;;22.30;53.00;;;;;;5011305;28;20659;-55
2021/06/15 00:24:18;;;;;;;4.00;3.60;;;22.30;53.40;;;;;;5013867;28;20651;-56
2021/06/15 00:26:45;;;;;;;7.20;4.83;;;22.20;53.40;;;;;;5012728;28;20662;-56
2021/06/15 00:29:12;;;;;;;4.77;4.30;;;22.30;53.30;;;;;;5013130;28;20671;-56
2021/06/15 00:31:40;;;;;;;6.20;4.37;;;22.30;53.30;;;;;;5012317;28;21207;-56
2021/06/15 00:34:07;;;;;;;6.43;4.47;;;22.20;53.50;;;;;;4997953;28;20653;-56
2021/06/15 00:36:34;;;;;;;6.63;5.90;;;22.20;53.50;;;;;;4993877;28;21017;-55
2021/06/15 00:39:02;;;;;;;9.03;4.93;;;22.10;53.60;;;;;;4993539;28;20644;-56
2021/06/15 00:41:30;;;;;;;3.97;3.63;;;22.00;53.70;;;;;;4993968;28;20664;-56
2021/06/15 00:43:57;;;;;;;5.30;4.40;;;22.00;53.80;;;;;;4993671;28;20625;-56
2021/06/15 00:46:25;;;;;;;5.07;4.53;;;21.90;53.80;;;;;;4995947;28;20660;-56
2021/06/15 00:48:52;;;;;;;4.50;4.10;;;21.90;54.40;;;;;;5012867;28;21422;-56
2021/06/15 00:51:19;;;;;;;5.80;5.20;;;21.80;54.10;;;;;;5013272;28;20647;-55
2021/06/15 00:53:47;;;;;;;5.83;5.13;;;21.80;54.60;;;;;;5013839;28;20652;-55
2021/06/15 00:56:15;;;;;;;10.47;6.57;;;21.80;54.60;;;;;;5013408;28;20945;-54
2021/06/15 00:58:42;;;;;;;11.20;4.80;;;21.80;54.60;;;;;;5013724;28;20664;-56
2021/06/15 01:01:10;;;;;;;4.47;4.07;;;21.80;54.80;;;;;;5013520;28;20627;-55
2021/06/15 01:03:37;;;;;;;5.77;4.20;;;21.70;54.70;;;;;;4996691;28;20675;-56
2021/06/15 01:06:07;;;;;;;6.60;4.53;;;21.70;54.70;;;;;;4993827;28;21232;-56
2021/06/15 01:08:40;;;;;;;4.70;3.87;;;21.70;54.70;;;;;;4993257;28;20708;-56
2021/06/15 01:11:10;;;;;;;9.03;5.10;;;21.60;54.70;;;;;;4993596;28;20624;-55
2021/06/15 01:13:46;;;;;;;4.80;3.80;;;21.60;54.70;;;;;;4993094;28;20687;-55
2021/06/15 01:16:17;;;;;;;4.60;4.17;;;21.60;54.70;;;;;;4992975;28;20680;-56
2021/06/15 01:18:46;;;;;;;4.03;3.63;;;21.60;54.80;;;;;;4992665;28;20661;-55
2021/06/15 01:21:13;;;;;;;5.30;4.20;;;21.60;55.00;;;;;;4997122;28;20775;-55
2021/06/15 01:23:56;;;;;;;4.90;4.50;;;21.60;55.10;;;;;;5012922;28;20660;-55
2021/06/15 01:26:40;;;;;;;4.80;4.40;;;21.60;55.10;;;;;;5011236;28;20696;-55
2021/06/15 01:29:11;;;;;;;4.60;4.20;;;21.60;55.20;;;;;;5012509;28;20636;-56
2021/06/15 01:31:40;;;;;;;5.00;4.50;;;21.60;55.30;;;;;;5012463;28;20647;-56
2021/06/15 01:34:09;;;;;;;6.23;4.57;;;21.60;55.30;;;;;;5012429;28;20646;-56
2021/06/15 01:36:38;;;;;;;5.63;4.80;;;21.60;55.30;;;;;;5011858;28;20656;-55
2021/06/15 01:39:07;;;;;;;4.33;3.40;;;21.60;55.50;;;;;;5012058;28;20655;-55
2021/06/15 01:41:34;;;;;;;5.43;4.90;;;21.50;55.50;;;;;;5012252;28;20646;-55
2021/06/15 01:44:03;;;;;;;4.40;4.10;;;21.50;55.70;;;;;;5012453;28;20663;-55
2021/06/15 01:46:34;;;;;;;5.10;4.30;;;21.50;56.40;;;;;;5012158;28;20695;-56
2021/06/15 01:49:05;;;;;;;5.87;5.13;;;21.40;56.10;;;;;;5011066;28;20659;-55
2021/06/15 01:51:32;;;;;;;5.40;3.83;;;21.40;56.10;;;;;;5005661;28;20656;-54
2021/06/15 01:54:01;;;;;;;5.17;4.40;;;21.40;56.30;;;;;;4992564;28;20648;-54
2021/06/15 01:56:28;;;;;;;4.83;4.43;;;21.30;56.40;;;;;;4993930;28;21260;-54
2021/06/15 01:58:57;;;;;;;4.77;3.53;;;21.40;56.50;;;;;;4993613;28;20624;-54
2021/06/15 02:01:24;;;;;;;4.67;4.27;;;21.30;56.30;;;;;;4992480;28;20620;-54
2021/06/15 02:03:53;;;;;;;7.23;5.23;;;21.30;56.60;;;;;;4991959;28;20652;-55
2021/06/15 02:06:22;;;;;;;7.10;4.80;;;21.20;56.60;;;;;;4992329;28;20697;-55
2021/06/15 02:08:50;;;;;;;5.00;4.13;;;21.20;56.60;;;;;;4991760;28;21080;-54
2021/06/15 02:11:18;;;;;;;4.40;4.00;;;21.10;56.80;;;;;;4990480;28;20983;-54
2021/06/15 02:13:46;;;;;;;4.57;3.93;;;21.00;56.90;;;;;;4991917;28;20661;-55
2021/06/15 02:16:13;;;;;;;4.60;4.00;;;20.90;57.10;;;;;;5000066;28;21245;-55
2021/06/15 02:18:42;;;;;;;5.27;4.53;;;20.80;57.30;;;;;;5010835;28;20997;-56
2021/06/15 02:21:11;;;;;;;6.23;3.73;;;20.80;57.50;;;;;;5012769;28;21262;-56
2021/06/15 02:23:39;;;;;;;5.13;4.73;;;20.70;57.80;;;;;;5000440;28;21223;-55
2021/06/15 02:26:07;;;;;;;4.23;3.70;;;20.70;58.20;;;;;;4991596;28;21076;-55
2021/06/15 02:28:34;;;;;;;4.23;3.90;;;20.70;58.50;;;;;;4991981;28;20649;-54
2021/06/15 02:31:02;;;;;;;4.97;4.57;;;20.70;58.40;;;;;;4991601;28;20629;-55
2021/06/15 02:33:31;;;;;;;4.97;4.40;;;20.60;58.40;;;;;;4992102;28;20660;-56
2021/06/15 02:36:00;;;;;;;6.53;4.77;;;20.60;58.50;;;;;;4991760;28;20656;-56
2021/06/15 02:38:31;;;;;;;4.13;3.83;;;20.50;58.70;;;;;;4991781;28;20699;-56
2021/06/15 02:41:00;;;;;;;4.33;3.93;;;20.50;58.90;;;;;;4991967;28;20994;-56
2021/06/15 02:43:27;;;;;;;4.67;4.27;;;20.50;58.90;;;;;;4992289;28;20667;-55
2021/06/15 02:45:54;;;;;;;5.77;5.27;;;20.50;59.00;;;;;;4991634;28;20697;-55
2021/06/15 02:48:22;;;;;;;5.63;4.33;;;20.50;59.10;;;;;;5046335;23;20722;-52
2021/06/15 02:50:49;;;;;;;4.50;3.87;;;20.50;59.20;;;;;;5046748;28;20857;-52
2021/06/15 02:53:17;;;;;;;4.23;3.83;;;20.50;59.30;;;;;;5033344;28;21208;-52
2021/06/15 02:55:48;;;;;;;5.40;4.40;;;20.50;59.60;;;;;;5033198;28;20722;-52
2021/06/15 02:58:15;;;;;;;7.00;4.50;;;20.50;59.90;;;;;;5032934;28;20697;-52
2021/06/15 03:00:43;;;;;;;4.53;3.93;;;20.40;60.00;;;;;;5033314;28;21198;-52
2021/06/15 03:03:10;;;;;;;5.07;4.53;;;20.40;60.20;;;;;;5032963;28;20631;-52
2021/06/15 03:05:37;;;;;;;4.90;4.60;;;20.40;60.40;;;;;;5032960;28;20791;-52
2021/06/15 03:08:05;;;;;;;5.23;4.47;;;20.40;60.20;;;;;;5032390;28;20693;-52
2021/06/15 03:10:32;;;;;;;5.20;4.70;;;20.40;60.40;;;;;;5031114;28;20681;-51
2021/06/15 03:13:04;;;;;;;6.03;4.00;;;20.40;60.60;;;;;;5032585;28;20655;-51
2021/06/15 03:15:35;;;;;;;4.60;4.20;;;20.40;60.90;;;;;;5033056;28;20727;-50
2021/06/15 03:18:04;;;;;;;10.40;4.77;;;20.30;61.30;;;;;;5047230;28;20705;-51
2021/06/15 03:20:31;;;;;;;5.00;4.60;;;20.30;61.20;;;;;;5052706;28;20692;-51
2021/06/15 03:23:06;;;;;;;5.00;4.60;;;20.30;60.90;;;;;;5052804;28;20626;-51
2021/06/15 03:25:34;;;;;;;4.60;4.20;;;20.30;60.70;;;;;;5051656;28;20626;-50
2021/06/15 03:28:06;;;;;;;5.43;4.33;;;20.30;60.70;;;;;;5051896;28;20704;-52
2021/06/15 03:30:34;;;;;;;7.80;5.30;;;20.20;60.60;;;;;;5051565;28;20677;-51
2021/06/15 03:33:04;;;;;;;5.20;4.70;;;20.10;61.00;;;;;;5052189;28;20618;-51
2021/06/15 03:35:32;;;;;;;6.50;4.50;;;20.10;61.30;;;;;;5052096;28;20646;-52
2021/06/15 03:38:01;;;;;;;8.23;5.73;;;20.10;61.50;;;;;;5051909;28;20673;-51
2021/06/15 03:40:29;;;;;;;6.53;5.90;;;20.10;61.60;;;;;;5050228;28;20717;-51
2021/06/15 03:42:56;;;;;;;6.93;5.70;;;20.10;61.60;;;;;;5031992;28;20650;-52
2021/06/15 03:45:26;;;;;;;5.80;5.30;;;20.00;61.50;;;;;;5031773;28;20623;-51
2021/06/15 03:47:53;;;;;;;5.20;4.70;;;19.90;61.70;;;;;;5031377;28;20705;-53
2021/06/15 03:50:20;;;;;;;6.03;4.30;;;19.90;62.00;;;;;;5045384;28;20626;-51
2021/06/15 03:52:48;;;;;;;5.90;5.30;;;19.70;62.30;;;;;;5052041;28;21268;-51
2021/06/15 03:55:15;;;;;;;7.00;4.70;;;19.60;62.90;;;;;;5051439;28;20671;-51
2021/06/15 03:57:43;;;;;;;7.40;5.10;;;19.50;63.70;;;;;;5051804;28;20704;-50
2021/06/15 04:00:12;;;;;;;5.23;4.73;;;19.40;64.50;;;;;;5049814;28;20650;-50
2021/06/15 04:02:42;;;;;;;5.43;4.83;;;19.50;65.10;;;;;;5032667;28;20656;-50
2021/06/15 04:05:10;;;;;;;5.07;4.67;;;19.50;65.70;;;;;;5041180;28;20677;-50
2021/06/15 04:07:38;;;;;;;7.63;5.27;;;19.50;66.20;;;;;;5039311;28;20968;-50
2021/06/15 04:10:07;;;;;;;5.17;4.13;;;19.60;66.30;;;;;;5031758;28;20627;-50
2021/06/15 04:12:34;;;;;;;5.40;4.90;;;19.70;66.40;;;;;;5031604;28;20650;-50
2021/06/15 04:15:02;;;;;;;5.70;5.10;;;19.80;66.60;;;;;;5031958;28;20700;-50
2021/06/15 04:17:29;;;;;;;6.70;5.17;;;19.80;66.80;;;;;;5031350;28;21190;-50
2021/06/15 04:19:58;;;;;;;5.10;4.70;;;19.90;66.60;;;;;;5042388;28;20661;-50
2021/06/15 04:22:28;;;;;;;8.13;3.93;;;19.90;65.70;;;;;;5051919;28;20622;-50
2021/06/15 04:24:56;;;;;;;6.73;4.90;;;20.00;65.00;;;;;;5051112;28;20629;-51
2021/06/15 04:27:25;;;;;;;5.20;4.67;;;20.00;64.60;;;;;;5049150;28;20708;-51
2021/06/15 04:29:54;;;;;;;6.60;5.97;;;20.00;64.70;;;;;;5051439;28;20618;-51
2021/06/15 04:32:22;;;;;;;8.83;5.13;;;20.10;64.90;;;;;;5048981;28;20618;-50
2021/06/15 04:34:52;;;;;;;7.40;4.47;;;20.10;64.90;;;;;;5050253;28;20669;-51
2021/06/15 04:37:21;;;;;;;4.87;4.33;;;20.10;65.40;;;;;;5050999;28;20740;-50
2021/06/15 04:39:49;;;;;;;4.47;4.07;;;20.10;65.80;;;;;;5049317;28;20673;-50
2021/06/15 04:42:17;;;;;;;4.50;4.10;;;20.20;66.30;;;;;;5048718;28;20664;-51
2021/06/15 04:44:45;;;;;;;7.90;4.53;;;20.20;66.70;;;;;;5050759;28;20626;-50
2021/06/15 04:47:14;;;;;;;6.40;4.17;;;20.20;67.10;;;;;;5050299;28;20690;-50
2021/06/15 04:49:47;;;;;;;5.13;4.50;;;20.20;67.20;;;;;;5050166;28;20735;-51
2021/06/15 04:52:15;;;;;;;5.97;4.80;;;20.30;67.70;;;;;;5050751;28;21165;-51
2021/06/15 04:54:46;;;;;;;7.27;4.30;;;20.30;68.20;;;;;;5051075;28;20763;-51
2021/06/15 04:57:15;;;;;;;5.57;5.07;;;20.40;68.10;;;;;;5049386;28;21239;-51
2021/06/15 04:59:42;;;;;;;7.70;5.03;;;20.40;67.90;;;;;;5051009;28;20663;-51
2021/06/15 05:02:09;;;;;;;5.77;5.27;;;20.40;67.70;;;;;;5050612;28;20638;-51
2021/06/15 05:04:37;;;;;;;5.47;4.97;;;20.50;67.80;;;;;;5050965;28;20625;-50
2021/06/15 05:07:04;;;;;;;8.00;6.87;;;20.50;67.70;;;;;;5049842;28;20720;-52
2021/06/15 05:09:32;;;;;;;9.20;7.40;;;20.60;67.80;;;;;;5050800;28;20621;-51
2021/06/15 05:12:00;;;;;;;8.13;6.60;;;20.60;67.40;;;;;;5050402;28;20653;-51
2021/06/15 05:14:28;;;;;;;7.90;7.10;;;20.70;67.20;;;;;;5049514;28;20634;-52
2021/06/15 05:16:55;;;;;;;10.20;7.03;;;20.70;66.90;;;;;;5049608;28;20704;-51
2021/06/15 05:19:23;;;;;;;8.17;6.40;;;20.80;67.30;;;;;;5050179;28;21027;-52
2021/06/15 05:21:53;;;;;;;7.83;7.00;;;20.80;66.20;;;;;;5049496;28;20749;-52
2021/06/15 05:24:28;;;;;;;7.80;7.00;;;20.80;66.20;;;;;;5049781;28;20646;-52
2021/06/15 05:26:55;;;;;;;8.87;7.77;;;20.90;66.20;;;;;;5047469;28;20682;-52
2021/06/15 05:29:24;;;;;;;7.90;6.73;;;20.90;66.10;;;;;;5048853;28;21022;-51
2021/06/15 05:31:51;;;;;;;11.93;7.13;;;20.90;66.10;;;;;;5049373;28;21176;-52
2021/06/15 05:34:18;;;;;;;12.03;6.77;;;20.90;66.10;;;;;;5049279;28;20654;-51
2021/06/15 05:36:45;;;;;;;10.27;8.43;;;20.90;66.30;;;;;;5050225;28;20618;-52
2021/06/15 05:39:13;;;;;;;15.73;9.53;;;20.90;66.50;;;;;;5050413;28;20626;-53
2021/06/15 05:41:40;;;;;;;19.77;10.60;;;21.00;66.70;;;;;;5050405;28;20668;-52
2021/06/15 05:44:07;;;;;;;14.83;11.20;;;21.00;66.90;;;;;;5049573;28;21206;-51
2021/06/15 05:46:36;;;;;;;17.03;11.60;;;21.00;66.90;;;;;;5049060;28;20625;-51
2021/06/15 05:49:03;;;;;;;19.57;10.50;;;21.00;66.90;;;;;;5049396;28;20652;-52
2021/06/15 05:51:30;;;;;;;15.30;10.60;;;21.10;67.00;;;;;;5048487;28;20665;-52
2021/06/15 05:54:02;;;;;;;16.93;9.90;;;21.10;67.20;;;;;;5049440;28;20940;-53
2021/06/15 05:56:29;;;;;;;14.20;8.97;;;21.20;67.30;;;;;;5049113;28;20801;-51
2021/06/15 05:58:57;;;;;;;10.77;8.50;;;21.20;67.50;;;;;;5049015;28;20677;-51
2021/06/15 06:01:25;;;;;;;9.33;8.43;;;21.30;67.40;;;;;;5049118;28;20795;-51
2021/06/15 06:03:59;;;;;;;10.30;8.83;;;21.30;67.40;;;;;;5049344;28;20670;-51
2021/06/15 06:09:12;;;;;;;16.83;8.10;;;21.40;67.40;;;;;;5048711;28;20591;-52
2021/06/15 06:11:40;;;;;;;10.83;8.67;;;21.50;67.30;;;;;;5049058;28;20626;-52
2021/06/15 06:14:07;;;;;;;9.80;8.77;;;21.60;67.20;;;;;;5049256;28;21033;-51
2021/06/15 06:16:34;;;;;;;10.20;8.27;;;21.60;67.10;;;;;;5048969;28;20629;-52
2021/06/15 06:19:04;;;;;;;8.37;7.50;;;21.70;67.00;;;;;;5048780;28;20930;-52
2021/06/15 06:21:31;;;;;;;9.57;8.60;;;21.70;66.80;;;;;;5049329;28;20661;-51
2021/06/15 06:23:59;;;;;;;9.23;8.13;;;21.80;66.60;;;;;;5049215;28;21232;-51
2021/06/15 06:26:26;;;;;;;8.77;7.97;;;21.90;66.50;;;;;;5048829;28;21131;-51
2021/06/15 06:28:53;;;;;;;9.03;7.60;;;22.00;65.80;;;;;;5048784;28;20698;-52
2021/06/15 06:31:20;;;;;;;14.00;8.60;;;22.00;65.70;;;;;;5048175;28;20634;-52
2021/06/15 06:33:48;;;;;;;13.67;9.47;;;22.10;66.00;;;;;;5049296;28;20654;-52
2021/06/15 06:36:16;;;;;;;12.13;9.40;;;22.10;65.70;;;;;;5049087;28;20629;-52
2021/06/15 06:38:48;;;;;;;14.20;9.97;;;22.20;65.20;;;;;;5048866;28;20661;-52
2021/06/15 06:41:16;;;;;;;10.50;9.50;;;22.30;64.80;;;;;;5049504;28;20626;-52
2021/06/15 06:43:43;;;;;;;11.00;9.90;;;22.30;64.50;;;;;;5048829;28;21097;-53
2021/06/15 06:46:10;;;;;;;13.67;10.37;;;22.40;64.50;;;;;;5049101;28;21292;-52
2021/06/15 06:48:38;;;;;;;15.00;10.60;;;22.40;63.70;;;;;;5048383;28;20708;-52
2021/06/15 06:51:05;;;;;;;13.73;10.40;;;22.40;63.70;;;;;;5047389;28;21226;-52
2021/06/15 06:53:34;;;;;;;24.43;10.90;;;22.50;63.50;;;;;;5049550;28;20696;-52
2021/06/15 06:56:02;;;;;;;13.30;10.03;;;22.50;63.20;;;;;;5048258;28;20658;-53
2021/06/15 06:58:29;;;;;;;11.97;8.97;;;22.60;63.40;;;;;;5048007;28;20714;-53
2021/06/15 07:00:56;;;;;;;14.90;10.50;;;22.70;63.40;;;;;;5049177;28;20618;-53
2021/06/15 07:03:23;;;;;;;10.87;8.40;;;22.70;63.00;;;;;;5048844;28;20653;-53
2021/06/15 07:05:51;;;;;;;10.60;7.43;;;22.80;62.70;;;;;;5048360;28;20650;-52
2021/06/15 07:08:18;;;;;;;7.80;7.00;;;22.80;62.20;;;;;;5048309;28;20801;-52
2021/06/15 07:10:47;;;;;;;8.43;6.87;;;22.90;61.10;;;;;;5041792;28;20754;-53
2021/06/15 07:13:14;;;;;;;10.43;6.90;;;23.00;59.70;;;;;;5046376;28;20665;-52
2021/06/15 07:15:41;;;;;;;9.50;6.97;;;23.10;59.50;;;;;;5046154;28;20631;-51
2021/06/15 07:18:08;;;;;;;7.73;6.93;;;23.10;59.40;;;;;;5048763;28;21175;-51
2021/06/15 07:20:36;;;;;;;9.63;6.90;;;23.20;59.50;;;;;;5044955;28;20666;-51
2021/06/15 07:23:03;;;;;;;12.93;7.90;;;23.30;59.50;;;;;;5067609;28;20947;-51
2021/06/15 07:25:31;;;;;;;22.27;8.23;;;23.40;59.80;;;;;;5057018;28;20650;-51
2021/06/15 07:28:00;;;;;;;7.80;6.40;;;23.50;60.00;;;;;;5047885;28;20686;-51
2021/06/15 07:30:27;;;;;;;5.50;5.00;;;23.50;60.00;;;;;;5035896;28;21020;-51
2021/06/15 07:32:56;;;;;;;6.77;5.50;;;23.60;58.70;;;;;;5032234;28;20759;-53
2021/06/15 07:35:24;;;;;;;4.80;4.33;;;23.80;57.80;;;;;;5040346;28;20894;-53
2021/06/15 07:37:51;;;;;;;6.47;5.30;;;23.90;57.60;;;;;;5043033;28;20693;-53
2021/06/15 07:40:22;;;;;;;6.20;4.73;;;24.20;57.20;;;;;;5032227;28;20794;-53
2021/06/15 07:42:50;;;;;;;6.13;5.30;;;24.30;56.90;;;;;;5038760;28;21187;-53
2021/06/15 07:45:18;;;;;;;8.70;5.10;;;24.40;56.40;;;;;;5032695;28;20623;-53
2021/06/15 07:47:45;;;;;;;4.67;4.17;;;24.60;56.40;;;;;;5035503;28;20720;-52
2021/06/15 07:50:13;;;;;;;5.23;4.73;;;24.70;56.00;;;;;;5050706;28;20708;-54
2021/06/15 07:52:40;;;;;;;4.47;4.10;;;24.80;54.70;;;;;;5052022;28;21252;-54
2021/06/15 07:55:09;;;;;;;4.77;4.37;;;24.90;53.40;;;;;;5051333;28;21235;-53
2021/06/15 07:57:36;;;;;;;4.87;4.43;;;25.00;52.90;;;;;;5031244;28;21030;-52
2021/06/15 08:00:04;;;;;;;6.43;4.80;;;25.10;52.70;;;;;;5031446;28;20655;-50
2021/06/15 08:02:33;;;;;;;8.07;4.10;;;25.20;52.90;;;;;;5051351;28;20684;-52
2021/06/15 08:05:00;;;;;;;7.13;4.20;;;25.30;52.80;;;;;;5032745;28;20618;-50
2021/06/15 08:07:27;;;;;;;6.80;4.53;;;25.50;52.50;;;;;;5044280;28;20812;-51
2021/06/15 08:09:55;;;;;;;6.37;4.13;;;25.60;52.30;;;;;;5031222;28;20694;-49
2021/06/15 08:12:22;;;;;;;6.50;5.80;;;25.80;51.70;;;;;;5049220;28;20672;-50
2021/06/15 08:14:49;;;;;;;10.03;5.40;;;25.90;51.40;;;;;;5050941;28;20637;-50
2021/06/15 08:17:16;;;;;;;5.23;4.67;;;26.00;51.40;;;;;;5050306;28;20692;-50
2021/06/15 08:19:45;;;;;;;6.00;5.20;;;26.10;51.50;;;;;;5047333;28;20635;-50
2021/06/15 08:22:12;;;;;;;5.20;4.60;;;26.20;51.70;;;;;;5048601;28;20654;-51
2021/06/15 08:24:40;;;;;;;5.57;4.97;;;26.20;52.00;;;;;;5050818;28;20642;-50
2021/06/15 08:27:07;;;;;;;4.97;4.50;;;26.30;51.50;;;;;;5050065;28;20689;-50
2021/06/15 08:29:34;;;;;;;5.10;4.13;;;26.30;51.50;;;;;;5049203;28;20751;-52
2021/06/15 08:32:01;;;;;;;11.50;5.73;;;26.40;51.40;;;;;;5050433;28;21037;-54
2021/06/15 08:34:29;;;;;;;8.97;4.47;;;26.40;51.00;;;;;;5050112;28;21003;-53
2021/06/15 08:36:57;;;;;;;7.10;5.47;;;26.40;51.00;;;;;;5049233;28;21058;-52
2021/06/15 08:39:24;;;;;;;4.87;4.43;;;26.40;51.00;;;;;;5050057;28;20757;-53
2021/06/15 08:41:52;;;;;;;14.47;4.37;;;26.40;51.20;;;;;;5041568;28;20694;-52
2021/06/15 08:44:19;;;;;;;9.07;5.60;;;26.50;51.80;;;;;;5030093;28;20651;-52
2021/06/15 08:46:46;;;;;;;10.83;5.43;;;26.50;52.30;;;;;;5041926;28;21197;-53
2021/06/15 08:49:14;;;;;;;8.97;5.03;;;26.50;52.80;;;;;;5048709;28;20682;-54
2021/06/15 08:51:41;;;;;;;5.73;4.83;;;26.50;52.90;;;;;;5049251;28;20626;-52
2021/06/15 08:54:10;;;;;;;9.37;5.97;;;26.50;53.10;;;;;;5050122;28;20615;-52
2021/06/15 08:56:37;;;;;;;6.30;4.87;;;26.50;53.40;;;;;;5049510;28;20669;-53
2021/06/15 08:59:13;;;;;;;6.07;5.53;;;26.50;53.50;;;;;;5049371;28;20762;-52
2021/06/15 09:01:40;;;;;;;5.53;5.03;;;26.60;53.70;;;;;;5049462;28;20642;-51
2021/06/15 09:04:07;;;;;;;6.13;4.90;;;26.60;53.50;;;;;;5049896;28;20992;-51
2021/06/15 09:06:34;;;;;;;7.43;5.10;;;26.60;52.90;;;;;;5049441;28;20661;-53
2021/06/15 09:09:01;;;;;;;5.30;4.43;;;26.70;52.90;;;;;;5048479;28;20686;-50
2021/06/15 09:11:48;;;;;;;5.43;4.20;;;26.70;52.70;;;;;;5049508;28;20650;-50
2021/06/15 09:14:15;;;;;;;5.27;4.77;;;26.70;52.20;;;;;;5049271;28;20665;-50
2021/06/15 09:16:45;;;;;;;5.33;4.83;;;26.70;52.20;;;;;;5048864;28;20988;-51
2021/06/15 09:19:17;;;;;;;6.03;5.40;;;26.80;52.20;;;;;;5045548;28;21178;-51
2021/06/15 09:21:45;;;;;;;4.13;3.80;;;26.90;52.00;;;;;;5048510;28;21039;-49
2021/06/15 09:24:14;;;;;;;9.27;5.10;;;27.10;52.00;;;;;;5049512;28;21194;-50
2021/06/15 09:27:05;;;;;;;6.47;4.97;;;27.30;51.80;;;;;;5048109;28;20776;-54
2021/06/15 09:29:43;;;;;;;5.13;4.57;;;27.70;50.90;;;;;;5048904;28;20812;-53
2021/06/15 09:32:11;;;;;;;7.00;4.83;;;28.00;50.20;;;;;;5049170;28;20606;-53
2021/06/15 09:34:47;;;;;;;5.93;5.33;;;28.40;49.50;;;;;;5048721;28;20760;-52
2021/06/15 09:37:14;;;;;;;5.17;4.73;;;28.60;48.50;;;;;;5045080;28;20749;-51
2021/06/15 09:39:41;;;;;;;5.30;4.50;;;28.90;48.10;;;;;;5028962;28;20659;-52
2021/06/15 09:42:12;;;;;;;5.43;5.03;;;29.10;47.30;;;;;;5035432;28;20642;-52
2021/06/15 09:44:39;;;;;;;8.13;5.23;;;29.10;47.30;;;;;;5028921;28;20663;-54
2021/06/15 09:47:08;;;;;;;5.10;4.70;;;29.00;47.30;;;;;;5043572;28;20700;-52
2021/06/15 09:49:36;;;;;;;6.07;5.47;;;28.90;46.70;;;;;;5048972;28;20694;-51
2021/06/15 09:52:17;;;;;;;5.10;4.40;;;28.70;46.70;;;;;;5047426;28;20701;-52
2021/06/15 09:54:46;;;;;;;15.37;6.30;;;28.50;46.50;;;;;;5048599;28;20618;-51
2021/06/15 09:57:20;;;;;;;6.20;4.40;;;28.30;46.60;;;;;;5047193;28;20780;-51
2021/06/15 10:00:10;;;;;;;4.90;4.07;;;28.20;45.60;;;;;;5048508;28;20645;-52
2021/06/15 10:02:46;;;;;;;6.13;4.17;;;28.00;44.60;;;;;;5048157;28;20622;-53
2021/06/15 10:05:24;;;;;;;4.40;4.00;;;27.90;44.70;;;;;;5045909;28;20660;-54
2021/06/15 10:07:51;;;;;;;8.97;4.10;;;27.80;44.10;;;;;;5027617;28;20812;-53
2021/06/15 10:10:19;;;;;;;5.80;4.33;;;27.80;44.40;;;;;;5029248;28;20754;-52
2021/06/15 10:12:48;;;;;;;5.37;4.67;;;27.80;43.70;;;;;;5047821;28;20681;-52
2021/06/15 10:15:16;;;;;;;5.90;4.77;;;27.60;43.70;;;;;;5045136;28;20732;-53
2021/06/15 10:17:45;;;;;;;7.20;4.80;;;27.60;44.80;;;;;;5046789;28;20694;-53
2021/06/15 10:20:14;;;;;;;4.77;4.37;;;27.60;45.30;;;;;;5047473;28;21177;-53
2021/06/15 10:22:42;;;;;;;4.80;4.40;;;27.50;45.20;;;;;;5048279;28;20668;-53
2021/06/15 10:25:10;;;;;;;6.13;4.90;;;27.50;45.10;;;;;;5046721;28;20657;-57
2021/06/15 10:27:37;;;;;;;6.40;5.57;;;27.50;45.30;;;;;;5048008;28;20658;-51
2021/06/15 10:30:07;;;;;;;4.90;4.40;;;27.50;45.50;;;;;;5048033;28;20702;-53
2021/06/15 10:32:35;;;;;;;5.50;5.00;;;27.50;45.50;;;;;;5028912;28;20734;-53
2021/06/15 10:35:04;;;;;;;5.17;4.70;;;27.50;44.90;;;;;;5028427;28;20721;-52
2021/06/15 10:37:47;;;;;;;4.20;3.77;;;27.50;44.60;;;;;;5042296;28;20678;-53
2021/06/15 10:40:51;;;;;;;5.27;4.40;;;27.50;43.90;;;;;;5028652;28;20694;-54
2021/06/15 10:43:31;;;;;;;6.30;4.10;;;27.50;42.70;;;;;;5046951;28;21006;-53
2021/06/15 10:46:05;;;;;;;5.10;4.63;;;27.50;42.80;;;;;;5048166;28;20677;-54
2021/06/15 10:48:41;;;;;;;4.27;3.97;;;27.50;43.10;;;;;;5047310;28;21127;-51
2021/06/15 10:51:36;;;;;;;5.07;3.97;;;27.50;42.60;;;;;;5045902;28;20681;-52
2021/06/15 10:54:05;;;;;;;5.10;4.53;;;27.60;42.80;;;;;;5048512;28;20664;-51
2021/06/15 10:56:34;;;;;;;4.90;4.10;;;27.60;43.00;;;;;;5047091;28;20660;-52
2021/06/15 10:59:08;;;;;;;5.57;4.53;;;27.60;43.00;;;;;;5047511;28;20614;-53
2021/06/15 11:01:39;;;;;;;4.77;4.20;;;27.60;42.80;;;;;;5048226;28;20695;-53
2021/06/15 11:04:06;;;;;;;6.10;4.40;;;27.70;42.50;;;;;;5047984;28;20681;-52
2021/06/15 11:06:44;;;;;;;4.33;3.90;;;27.80;42.30;;;;;;5048051;28;20658;-54
2021/06/15 11:09:21;;;;;;;5.00;4.50;;;27.80;41.80;;;;;;5047112;28;20638;-51
2021/06/15 11:11:50;;;;;;;5.80;3.90;;;27.80;42.00;;;;;;5049795;28;20662;-52
2021/06/15 11:14:19;;;;;;;4.70;4.30;;;27.90;42.30;;;;;;5049168;28;20610;-52
2021/06/15 11:16:47;;;;;;;4.90;3.90;;;28.00;42.20;;;;;;5051076;28;20658;-53
2021/06/15 11:19:31;;;;;;;5.17;4.70;;;28.20;41.90;;;;;;5051040;28;21236;-51
2021/06/15 11:21:59;;;;;;;6.63;5.00;;;28.20;40.80;;;;;;5050779;28;20661;-54
2021/06/15 11:24:27;;;;;;;4.70;4.30;;;28.30;40.80;;;;;;5052059;28;20643;-52
2021/06/15 11:26:55;;;;;;;5.13;4.60;;;28.40;40.70;;;;;;5050925;28;20654;-51
2021/06/15 11:29:31;;;;;;;5.63;3.90;;;28.30;40.10;;;;;;5051004;28;20668;-53
2021/06/15 11:32:27;;;;;;;5.33;3.97;;;28.30;40.50;;;;;;5050448;28;20656;-51
2021/06/15 11:35:17;;;;;;;4.93;4.20;;;28.50;40.60;;;;;;5015536;28;20692;-53
2021/06/15 11:37:46;;;;;;;4.23;3.83;;;28.60;40.40;;;;;;5049032;28;20646;-54
2021/06/15 11:40:32;;;;;;;4.77;4.37;;;28.70;39.90;;;;;;5051726;28;20629;-56
2021/06/15 11:43:20;;;;;;;4.73;4.30;;;28.80;39.80;;;;;;5033308;28;21183;-55
2021/06/15 11:45:48;;;;;;;4.67;4.27;;;28.90;39.90;;;;;;5035455;28;20614;-56
2021/06/15 11:48:22;;;;;;;8.23;4.40;;;28.90;39.80;;;;;;5050388;28;20661;-53
2021/06/15 11:50:51;;;;;;;7.00;4.90;;;29.00;39.40;;;;;;5051135;28;20739;-54
2021/06/15 11:53:20;;;;;;;4.47;4.07;;;29.00;39.20;;;;;;5048907;28;20618;-51
2021/06/15 11:55:48;;;;;;;5.23;4.73;;;29.00;39.00;;;;;;5050799;28;20662;-52
2021/06/15 11:58:17;;;;;;;7.90;4.40;;;29.00;38.90;;;;;;5049568;28;20715;-52
2021/06/15 12:00:45;;;;;;;10.23;4.50;;;29.00;39.60;;;;;;5051302;28;20641;-51
2021/06/15 12:03:14;;;;;;;6.13;4.77;;;29.10;38.70;;;;;;5051059;28;21287;-52
2021/06/15 12:05:43;;;;;;;9.20;4.40;;;29.10;38.40;;;;;;5048450;28;20646;-51
2021/06/15 12:08:11;;;;;;;5.70;5.17;;;29.10;38.10;;;;;;5048132;28;20696;-52
2021/06/15 12:10:38;;;;;;;6.17;4.23;;;29.10;38.60;;;;;;5048976;28;20997;-53
2021/06/15 12:13:10;;;;;;;5.40;4.33;;;29.10;38.50;;;;;;5050048;28;21230;-54
2021/06/15 12:15:59;;;;;;;4.90;4.50;;;29.20;38.50;;;;;;5050200;28;20658;-52
2021/06/15 12:18:45;;;;;;;5.90;4.23;;;29.20;38.60;;;;;;5048978;28;20669;-53
2021/06/15 12:21:15;;;;;;;6.33;4.63;;;29.30;38.80;;;;;;5050246;28;20672;-53
2021/06/15 12:23:45;;;;;;;6.10;4.70;;;29.30;38.70;;;;;;5048848;28;20653;-52
2021/06/15 12:26:20;;;;;;;4.40;4.10;;;29.40;38.70;;;;;;5050261;28;20626;-52
2021/06/15 12:28:48;;;;;;;5.10;4.60;;;29.40;38.60;;;;;;5049419;28;20689;-53
2021/06/15 12:31:17;;;;;;;5.33;3.80;;;29.40;38.60;;;;;;5050009;28;20697;-53
2021/06/15 12:33:45;;;;;;;6.97;4.30;;;29.40;38.90;;;;;;5050447;28;20654;-53
2021/06/15 12:36:15;;;;;;;4.70;4.30;;;29.40;39.10;;;;;;5050441;28;20637;-52
2021/06/15 12:38:43;;;;;;;5.10;4.53;;;29.40;38.90;;;;;;5034286;28;21083;-51
2021/06/15 12:41:12;;;;;;;5.00;3.67;;;29.40;38.40;;;;;;5025133;28;20653;-55
2021/06/15 12:43:39;;;;;;;4.80;4.40;;;29.50;38.30;;;;;;5049135;28;20665;-53
2021/06/15 12:46:08;;;;;;;7.40;5.40;;;29.50;37.80;;;;;;5049906;28;20689;-52
2021/06/15 12:48:43;;;;;;;4.80;4.17;;;29.50;38.00;;;;;;5049357;28;20690;-51
2021/06/15 12:51:11;;;;;;;4.57;3.90;;;29.50;38.20;;;;;;5050010;28;20730;-54
2021/06/15 12:53:41;;;;;;;5.33;4.70;;;29.60;38.00;;;;;;5048616;28;20650;-52
2021/06/15 12:56:26;;;;;;;6.13;4.80;;;29.60;38.00;;;;;;5049902;28;20668;-53
2021/06/15 12:58:54;;;;;;;5.20;4.70;;;29.70;37.60;;;;;;5048999;28;20662;-51
2021/06/15 13:01:25;;;;;;;6.90;3.97;;;29.80;37.50;;;;;;5029296;28;20650;-51